sensor_id;sensor_type;location;lat;lon;timestamp;P1;durP1;ratioP1;P2;durP2;ratioP2
14251;SDS011;7210;51.502;10.722;2023-11-21T00:00:04;5.90;;;5.17;;
14251;SDS011;7210;51.502;10.722;2023-11-21T00:02:38;5.83;;;4.30;;
14251;SDS011;7210;51.502;10.722;2023-11-21T00:05:06;5.37;;;4.57;;
14251;SDS011;7210;51.502;10.722;2023-11-21T00:07:36;6.63;;;5.10;;
14251;SDS011;7210;51.502;10.722;2023-11-21T00:10:03;7.03;;;5.03;;
14251;SDS011;7210;51.502;10.722;2023-11-21T00:12:31;6.87;;;5.13;;
14251;SDS011;7210;51.502;10.722;2023-11-21T00:15:04;8.07;;;5.40;;
14251;SDS011;7210;51.502;10.722;2023-11-21T00:17:40;7.43;;;5.33;;
14251;SDS011;7210;51.502;10.722;2023-11-21T00:20:08;10.53;;;6.37;;
14251;SDS011;7210;51.502;10.722;2023-11-21T00:22:39;9.27;;;5.50;;
14251;SDS011;7210;51.502;10.722;2023-11-21T00:25:06;10.27;;;6.17;;
14251;SDS011;7210;51.502;10.722;2023-11-21T00:27:34;8.60;;;5.80;;
14251;SDS011;7210;51.502;10.722;2023-11-21T00:30:01;6.90;;;5.60;;
14251;SDS011;7210;51.502;10.722;2023-11-21T00:32:30;9.00;;;5.37;;
14251;SDS011;7210;51.502;10.722;2023-11-21T00:34:57;8.60;;;5.50;;
14251;SDS011;7210;51.502;10.722;2023-11-21T00:37:27;8.93;;;6.07;;
14251;SDS011;7210;51.502;10.722;2023-11-21T00:39:55;9.20;;;5.77;;
14251;SDS011;7210;51.502;10.722;2023-11-21T00:42:23;9.63;;;6.33;;
14251;SDS011;7210;51.502;10.722;2023-11-21T00:44:50;8.20;;;5.33;;
14251;SDS011;7210;51.502;10.722;2023-11-21T00:47:17;8.57;;;6.00;;
14251;SDS011;7210;51.502;10.722;2023-11-21T00:49:44;9.27;;;6.37;;
14251;SDS011;7210;51.502;10.722;2023-11-21T00:52:11;9.77;;;5.77;;
14251;SDS011;7210;51.502;10.722;2023-11-21T00:54:38;7.10;;;4.83;;
14251;SDS011;7210;51.502;10.722;2023-11-21T00:57:11;7.40;;;4.93;;
14251;SDS011;7210;51.502;10.722;2023-11-21T00:59:38;8.60;;;5.53;;
14251;SDS011;7210;51.502;10.722;2023-11-21T01:02:06;7.00;;;5.47;;
14251;SDS011;7210;51.502;10.722;2023-11-21T01:04:40;10.60;;;6.53;;
14251;SDS011;7210;51.502;10.722;2023-11-21T01:07:07;9.47;;;6.03;;
14251;SDS011;7210;51.502;10.722;2023-11-21T01:09:35;9.93;;;5.77;;
14251;SDS011;7210;51.502;10.722;2023-11-21T01:12:02;12.97;;;6.40;;
14251;SDS011;7210;51.502;10.722;2023-11-21T01:14:35;10.17;;;6.87;;
14251;SDS011;7210;51.502;10.722;2023-11-21T01:17:04;10.70;;;6.83;;
14251;SDS011;7210;51.502;10.722;2023-11-21T01:19:40;14.90;;;6.87;;
14251;SDS011;7210;51.502;10.722;2023-11-21T01:22:07;12.33;;;6.73;;
14251;SDS011;7210;51.502;10.722;2023-11-21T01:24:40;13.37;;;6.60;;
14251;SDS011;7210;51.502;10.722;2023-11-21T01:27:07;11.70;;;6.37;;
14251;SDS011;7210;51.502;10.722;2023-11-21T01:29:35;8.73;;;5.90;;
14251;SDS011;7210;51.502;10.722;2023-11-21T01:32:02;7.13;;;4.90;;
14251;SDS011;7210;51.502;10.722;2023-11-21T01:34:29;7.40;;;4.80;;
14251;SDS011;7210;51.502;10.722;2023-11-21T01:36:57;8.20;;;5.17;;
14251;SDS011;7210;51.502;10.722;2023-11-21T01:42:18;9.53;;;4.97;;
14251;SDS011;7210;51.502;10.722;2023-11-21T01:44:46;7.10;;;4.70;;
14251;SDS011;7210;51.502;10.722;2023-11-21T01:47:14;8.90;;;5.10;;
14251;SDS011;7210;51.502;10.722;2023-11-21T01:49:43;8.60;;;5.57;;
14251;SDS011;7210;51.502;10.722;2023-11-21T01:52:16;11.17;;;5.87;;
14251;SDS011;7210;51.502;10.722;2023-11-21T01:54:46;12.23;;;5.87;;
14251;SDS011;7210;51.502;10.722;2023-11-21T01:57:16;9.50;;;6.40;;
14251;SDS011;7210;51.502;10.722;2023-11-21T01:59:47;12.07;;;7.07;;
14251;SDS011;7210;51.502;10.722;2023-11-21T02:02:15;10.60;;;6.20;;
14251;SDS011;7210;51.502;10.722;2023-11-21T02:04:44;8.70;;;5.30;;
14251;SDS011;7210;51.502;10.722;2023-11-21T02:07:16;9.90;;;6.43;;
14251;SDS011;7210;51.502;10.722;2023-11-21T02:09:46;7.73;;;5.63;;
14251;SDS011;7210;51.502;10.722;2023-11-21T02:15:03;9.70;;;6.13;;
14251;SDS011;7210;51.502;10.722;2023-11-21T02:20:16;7.80;;;5.37;;
14251;SDS011;7210;51.502;10.722;2023-11-21T02:22:50;7.63;;;5.83;;
14251;SDS011;7210;51.502;10.722;2023-11-21T02:25:28;5.90;;;4.70;;
14251;SDS011;7210;51.502;10.722;2023-11-21T02:28:10;10.07;;;5.47;;
14251;SDS011;7210;51.502;10.722;2023-11-21T02:30:40;10.13;;;5.37;;
14251;SDS011;7210;51.502;10.722;2023-11-21T02:33:07;8.03;;;5.47;;
14251;SDS011;7210;51.502;10.722;2023-11-21T02:35:34;9.00;;;6.00;;
14251;SDS011;7210;51.502;10.722;2023-11-21T02:38:03;8.57;;;6.17;;
14251;SDS011;7210;51.502;10.722;2023-11-21T02:40:31;7.03;;;4.97;;
14251;SDS011;7210;51.502;10.722;2023-11-21T02:43:04;7.63;;;4.90;;
14251;SDS011;7210;51.502;10.722;2023-11-21T02:45:31;12.53;;;5.73;;
14251;SDS011;7210;51.502;10.722;2023-11-21T02:47:58;7.90;;;5.50;;
14251;SDS011;7210;51.502;10.722;2023-11-21T02:50:25;8.43;;;5.43;;
14251;SDS011;7210;51.502;10.722;2023-11-21T02:52:52;8.47;;;5.50;;
14251;SDS011;7210;51.502;10.722;2023-11-21T02:55:21;9.00;;;5.60;;
14251;SDS011;7210;51.502;10.722;2023-11-21T02:57:52;7.37;;;5.03;;
14251;SDS011;7210;51.502;10.722;2023-11-21T03:00:19;9.03;;;5.23;;
14251;SDS011;7210;51.502;10.722;2023-11-21T03:02:53;8.10;;;6.23;;
14251;SDS011;7210;51.502;10.722;2023-11-21T03:05:20;9.00;;;6.07;;
14251;SDS011;7210;51.502;10.722;2023-11-21T03:07:52;12.60;;;6.63;;
14251;SDS011;7210;51.502;10.722;2023-11-21T03:10:19;9.33;;;6.53;;
14251;SDS011;7210;51.502;10.722;2023-11-21T03:12:48;9.33;;;6.90;;
14251;SDS011;7210;51.502;10.722;2023-11-21T03:15:15;9.07;;;5.77;;
14251;SDS011;7210;51.502;10.722;2023-11-21T03:17:46;12.70;;;6.57;;
14251;SDS011;7210;51.502;10.722;2023-11-21T03:20:14;8.87;;;5.97;;
14251;SDS011;7210;51.502;10.722;2023-11-21T03:22:41;12.13;;;6.13;;
14251;SDS011;7210;51.502;10.722;2023-11-21T03:25:08;12.37;;;6.13;;
14251;SDS011;7210;51.502;10.722;2023-11-21T03:27:38;9.03;;;5.67;;
14251;SDS011;7210;51.502;10.722;2023-11-21T03:30:07;6.83;;;5.00;;
14251;SDS011;7210;51.502;10.722;2023-11-21T03:32:40;9.17;;;5.03;;
14251;SDS011;7210;51.502;10.722;2023-11-21T03:35:07;11.97;;;5.63;;
14251;SDS011;7210;51.502;10.722;2023-11-21T03:37:34;6.97;;;5.10;;
14251;SDS011;7210;51.502;10.722;2023-11-21T03:40:03;8.03;;;4.70;;
14251;SDS011;7210;51.502;10.722;2023-11-21T03:42:33;7.17;;;5.03;;
14251;SDS011;7210;51.502;10.722;2023-11-21T03:45:01;8.80;;;5.63;;
14251;SDS011;7210;51.502;10.722;2023-11-21T03:47:29;9.03;;;6.87;;
14251;SDS011;7210;51.502;10.722;2023-11-21T03:49:58;10.27;;;5.87;;
14251;SDS011;7210;51.502;10.722;2023-11-21T03:52:25;10.53;;;6.40;;
14251;SDS011;7210;51.502;10.722;2023-11-21T03:54:52;9.53;;;6.27;;
14251;SDS011;7210;51.502;10.722;2023-11-21T03:57:20;9.33;;;5.47;;
14251;SDS011;7210;51.502;10.722;2023-11-21T03:59:47;8.67;;;6.00;;
14251;SDS011;7210;51.502;10.722;2023-11-21T04:02:15;18.30;;;6.30;;
14251;SDS011;7210;51.502;10.722;2023-11-21T04:04:42;10.27;;;5.97;;
14251;SDS011;7210;51.502;10.722;2023-11-21T04:07:10;7.73;;;5.70;;
14251;SDS011;7210;51.502;10.722;2023-11-21T04:09:38;9.53;;;6.13;;
14251;SDS011;7210;51.502;10.722;2023-11-21T04:12:06;10.93;;;6.87;;
14251;SDS011;7210;51.502;10.722;2023-11-21T04:14:34;9.90;;;6.30;;
14251;SDS011;7210;51.502;10.722;2023-11-21T04:17:04;7.87;;;6.20;;
14251;SDS011;7210;51.502;10.722;2023-11-21T04:19:32;10.47;;;6.17;;
14251;SDS011;7210;51.502;10.722;2023-11-21T04:21:59;8.10;;;6.43;;
14251;SDS011;7210;51.502;10.722;2023-11-21T04:24:26;8.60;;;6.27;;
14251;SDS011;7210;51.502;10.722;2023-11-21T04:26:53;9.73;;;6.30;;
14251;SDS011;7210;51.502;10.722;2023-11-21T04:29:20;8.87;;;6.33;;
14251;SDS011;7210;51.502;10.722;2023-11-21T04:31:58;9.27;;;5.90;;
14251;SDS011;7210;51.502;10.722;2023-11-21T04:34:28;11.33;;;6.40;;
14251;SDS011;7210;51.502;10.722;2023-11-21T04:36:57;7.90;;;5.93;;
14251;SDS011;7210;51.502;10.722;2023-11-21T04:39:28;8.83;;;6.23;;
14251;SDS011;7210;51.502;10.722;2023-11-21T04:41:58;7.43;;;5.80;;
14251;SDS011;7210;51.502;10.722;2023-11-21T04:44:25;9.93;;;6.13;;
14251;SDS011;7210;51.502;10.722;2023-11-21T04:46:51;9.23;;;6.80;;
14251;SDS011;7210;51.502;10.722;2023-11-21T04:49:18;8.13;;;6.00;;
14251;SDS011;7210;51.502;10.722;2023-11-21T04:51:45;8.50;;;5.67;;
14251;SDS011;7210;51.502;10.722;2023-11-21T04:54:14;8.40;;;6.20;;
14251;SDS011;7210;51.502;10.722;2023-11-21T04:56:52;8.50;;;6.43;;
14251;SDS011;7210;51.502;10.722;2023-11-21T04:59:22;7.40;;;6.43;;
14251;SDS011;7210;51.502;10.722;2023-11-21T05:01:58;8.87;;;6.47;;
14251;SDS011;7210;51.502;10.722;2023-11-21T05:04:25;12.03;;;6.53;;
14251;SDS011;7210;51.502;10.722;2023-11-21T05:06:52;9.63;;;7.00;;
14251;SDS011;7210;51.502;10.722;2023-11-21T05:09:23;10.57;;;8.00;;
14251;SDS011;7210;51.502;10.722;2023-11-21T05:11:50;13.73;;;9.37;;
14251;SDS011;7210;51.502;10.722;2023-11-21T05:14:22;11.60;;;10.20;;
14251;SDS011;7210;51.502;10.722;2023-11-21T05:16:49;13.10;;;7.70;;
14251;SDS011;7210;51.502;10.722;2023-11-21T05:19:22;13.00;;;7.23;;
14251;SDS011;7210;51.502;10.722;2023-11-21T05:21:49;9.40;;;6.60;;
14251;SDS011;7210;51.502;10.722;2023-11-21T05:24:16;8.93;;;7.20;;
14251;SDS011;7210;51.502;10.722;2023-11-21T05:26:47;10.57;;;7.60;;
14251;SDS011;7210;51.502;10.722;2023-11-21T05:29:16;9.67;;;6.67;;
14251;SDS011;7210;51.502;10.722;2023-11-21T05:31:43;12.43;;;7.07;;
14251;SDS011;7210;51.502;10.722;2023-11-21T05:34:10;9.57;;;7.03;;
14251;SDS011;7210;51.502;10.722;2023-11-21T05:36:46;9.43;;;7.03;;
14251;SDS011;7210;51.502;10.722;2023-11-21T05:39:13;12.03;;;8.13;;
14251;SDS011;7210;51.502;10.722;2023-11-21T05:41:42;11.63;;;8.27;;
14251;SDS011;7210;51.502;10.722;2023-11-21T05:44:11;10.17;;;7.73;;
14251;SDS011;7210;51.502;10.722;2023-11-21T05:46:39;9.47;;;6.17;;
14251;SDS011;7210;51.502;10.722;2023-11-21T05:49:10;11.63;;;8.27;;
14251;SDS011;7210;51.502;10.722;2023-11-21T05:51:46;16.33;;;9.10;;
14251;SDS011;7210;51.502;10.722;2023-11-21T05:54:16;14.87;;;9.23;;
14251;SDS011;7210;51.502;10.722;2023-11-21T05:56:43;13.10;;;9.97;;
14251;SDS011;7210;51.502;10.722;2023-11-21T05:59:11;13.73;;;8.70;;
14251;SDS011;7210;51.502;10.722;2023-11-21T06:01:40;16.70;;;11.27;;
14251;SDS011;7210;51.502;10.722;2023-11-21T06:04:16;14.20;;;9.53;;
14251;SDS011;7210;51.502;10.722;2023-11-21T06:06:46;14.13;;;9.80;;
14251;SDS011;7210;51.502;10.722;2023-11-21T06:09:13;14.07;;;9.83;;
14251;SDS011;7210;51.502;10.722;2023-11-21T06:11:40;15.33;;;9.97;;
14251;SDS011;7210;51.502;10.722;2023-11-21T06:14:07;18.93;;;10.43;;
14251;SDS011;7210;51.502;10.722;2023-11-21T06:16:36;12.60;;;8.70;;
14251;SDS011;7210;51.502;10.722;2023-11-21T06:19:03;13.27;;;9.33;;
14251;SDS011;7210;51.502;10.722;2023-11-21T06:21:30;14.60;;;8.73;;
14251;SDS011;7210;51.502;10.722;2023-11-21T06:24:04;15.83;;;9.17;;
14251;SDS011;7210;51.502;10.722;2023-11-21T06:26:32;14.43;;;11.03;;
14251;SDS011;7210;51.502;10.722;2023-11-21T06:28:59;14.40;;;9.47;;
14251;SDS011;7210;51.502;10.722;2023-11-21T06:31:35;12.53;;;9.17;;
14251;SDS011;7210;51.502;10.722;2023-11-21T06:34:02;19.73;;;13.97;;
14251;SDS011;7210;51.502;10.722;2023-11-21T06:36:34;17.30;;;12.03;;
14251;SDS011;7210;51.502;10.722;2023-11-21T06:39:04;17.87;;;10.27;;
14251;SDS011;7210;51.502;10.722;2023-11-21T06:41:33;15.23;;;11.37;;
14251;SDS011;7210;51.502;10.722;2023-11-21T06:44:04;16.07;;;10.83;;
14251;SDS011;7210;51.502;10.722;2023-11-21T06:46:31;17.93;;;11.63;;
14251;SDS011;7210;51.502;10.722;2023-11-21T06:49:00;20.67;;;12.33;;
14251;SDS011;7210;51.502;10.722;2023-11-21T06:51:28;16.40;;;10.90;;
14251;SDS011;7210;51.502;10.722;2023-11-21T06:57:04;17.63;;;11.70;;
14251;SDS011;7210;51.502;10.722;2023-11-21T06:59:31;18.90;;;13.43;;
14251;SDS011;7210;51.502;10.722;2023-11-21T07:02:04;21.93;;;14.47;;
14251;SDS011;7210;51.502;10.722;2023-11-21T07:04:33;22.27;;;14.67;;
14251;SDS011;7210;51.502;10.722;2023-11-21T07:07:01;18.67;;;12.87;;
14251;SDS011;7210;51.502;10.722;2023-11-21T07:09:29;22.40;;;13.17;;
14251;SDS011;7210;51.502;10.722;2023-11-21T07:11:58;21.00;;;12.33;;
14251;SDS011;7210;51.502;10.722;2023-11-21T07:14:25;21.03;;;12.67;;
14251;SDS011;7210;51.502;10.722;2023-11-21T07:16:52;18.67;;;11.70;;
14251;SDS011;7210;51.502;10.722;2023-11-21T07:19:22;20.60;;;12.20;;
14251;SDS011;7210;51.502;10.722;2023-11-21T07:21:53;21.57;;;12.10;;
14251;SDS011;7210;51.502;10.722;2023-11-21T07:24:22;19.27;;;12.30;;
14251;SDS011;7210;51.502;10.722;2023-11-21T07:26:49;22.97;;;13.33;;
14251;SDS011;7210;51.502;10.722;2023-11-21T07:29:16;24.77;;;14.10;;
14251;SDS011;7210;51.502;10.722;2023-11-21T07:31:43;25.93;;;15.47;;
14251;SDS011;7210;51.502;10.722;2023-11-21T07:34:10;23.03;;;14.70;;
14251;SDS011;7210;51.502;10.722;2023-11-21T07:36:46;32.27;;;16.07;;
14251;SDS011;7210;51.502;10.722;2023-11-21T07:39:14;25.67;;;15.00;;
14251;SDS011;7210;51.502;10.722;2023-11-21T07:41:41;29.67;;;16.30;;
14251;SDS011;7210;51.502;10.722;2023-11-21T07:44:22;28.17;;;16.73;;
14251;SDS011;7210;51.502;10.722;2023-11-21T07:46:49;32.97;;;18.27;;
14251;SDS011;7210;51.502;10.722;2023-11-21T07:49:16;35.63;;;18.37;;
14251;SDS011;7210;51.502;10.722;2023-11-21T07:51:46;33.87;;;18.93;;
14251;SDS011;7210;51.502;10.722;2023-11-21T07:54:14;39.60;;;19.07;;
14251;SDS011;7210;51.502;10.722;2023-11-21T07:56:42;40.33;;;19.03;;
14251;SDS011;7210;51.502;10.722;2023-11-21T07:59:10;35.93;;;19.87;;
14251;SDS011;7210;51.502;10.722;2023-11-21T08:01:46;37.10;;;19.67;;
14251;SDS011;7210;51.502;10.722;2023-11-21T08:07:06;38.13;;;19.03;;
14251;SDS011;7210;51.502;10.722;2023-11-21T08:09:47;36.27;;;19.97;;
14251;SDS011;7210;51.502;10.722;2023-11-21T08:12:22;38.20;;;19.47;;
14251;SDS011;7210;51.502;10.722;2023-11-21T08:14:49;43.67;;;20.63;;
14251;SDS011;7210;51.502;10.722;2023-11-21T08:17:22;44.93;;;21.13;;
14251;SDS011;7210;51.502;10.722;2023-11-21T08:19:52;39.20;;;19.53;;
14251;SDS011;7210;51.502;10.722;2023-11-21T08:22:22;34.73;;;18.97;;
14251;SDS011;7210;51.502;10.722;2023-11-21T08:24:53;41.97;;;19.90;;
14251;SDS011;7210;51.502;10.722;2023-11-21T08:27:21;39.77;;;20.77;;
14251;SDS011;7210;51.502;10.722;2023-11-21T08:29:48;38.07;;;20.87;;
14251;SDS011;7210;51.502;10.722;2023-11-21T08:32:16;43.90;;;20.67;;
14251;SDS011;7210;51.502;10.722;2023-11-21T08:34:43;44.90;;;22.03;;
14251;SDS011;7210;51.502;10.722;2023-11-21T08:37:10;42.20;;;20.33;;
14251;SDS011;7210;51.502;10.722;2023-11-21T08:39:37;41.43;;;20.37;;
14251;SDS011;7210;51.502;10.722;2023-11-21T08:42:08;41.27;;;20.77;;
14251;SDS011;7210;51.502;10.722;2023-11-21T08:44:35;35.47;;;19.83;;
14251;SDS011;7210;51.502;10.722;2023-11-21T08:47:04;45.50;;;21.40;;
14251;SDS011;7210;51.502;10.722;2023-11-21T08:49:31;47.17;;;20.33;;
14251;SDS011;7210;51.502;10.722;2023-11-21T08:51:58;40.50;;;21.03;;
14251;SDS011;7210;51.502;10.722;2023-11-21T08:54:25;49.23;;;22.20;;
14251;SDS011;7210;51.502;10.722;2023-11-21T08:56:52;38.73;;;20.33;;
14251;SDS011;7210;51.502;10.722;2023-11-21T08:59:21;40.17;;;20.67;;
14251;SDS011;7210;51.502;10.722;2023-11-21T09:01:49;42.87;;;21.90;;
14251;SDS011;7210;51.502;10.722;2023-11-21T09:04:16;42.10;;;21.40;;
14251;SDS011;7210;51.502;10.722;2023-11-21T09:06:43;39.00;;;20.97;;
14251;SDS011;7210;51.502;10.722;2023-11-21T09:09:10;44.97;;;21.73;;
14251;SDS011;7210;51.502;10.722;2023-11-21T09:11:37;53.53;;;23.50;;
14251;SDS011;7210;51.502;10.722;2023-11-21T09:14:04;45.73;;;20.97;;
14251;SDS011;7210;51.502;10.722;2023-11-21T09:16:32;48.43;;;24.37;;
14251;SDS011;7210;51.502;10.722;2023-11-21T09:19:04;41.53;;;20.07;;
14251;SDS011;7210;51.502;10.722;2023-11-21T09:21:31;44.80;;;23.03;;
14251;SDS011;7210;51.502;10.722;2023-11-21T09:23:59;40.80;;;20.03;;
14251;SDS011;7210;51.502;10.722;2023-11-21T09:26:26;46.53;;;21.37;;
14251;SDS011;7210;51.502;10.722;2023-11-21T09:28:55;43.63;;;21.50;;
14251;SDS011;7210;51.502;10.722;2023-11-21T09:31:22;34.77;;;18.67;;
14251;SDS011;7210;51.502;10.722;2023-11-21T09:33:50;38.27;;;18.37;;
14251;SDS011;7210;51.502;10.722;2023-11-21T09:36:18;39.20;;;20.53;;
14251;SDS011;7210;51.502;10.722;2023-11-21T09:38:46;37.77;;;19.50;;
14251;SDS011;7210;51.502;10.722;2023-11-21T09:41:16;37.77;;;20.43;;
14251;SDS011;7210;51.502;10.722;2023-11-21T09:43:47;41.00;;;20.87;;
14251;SDS011;7210;51.502;10.722;2023-11-21T09:46:18;33.50;;;18.53;;
14251;SDS011;7210;51.502;10.722;2023-11-21T09:48:53;33.13;;;19.73;;
14251;SDS011;7210;51.502;10.722;2023-11-21T09:51:22;35.57;;;20.03;;
14251;SDS011;7210;51.502;10.722;2023-11-21T09:53:55;38.70;;;20.27;;
14251;SDS011;7210;51.502;10.722;2023-11-21T09:56:26;36.27;;;19.77;;
14251;SDS011;7210;51.502;10.722;2023-11-21T09:58:55;32.20;;;19.57;;
14251;SDS011;7210;51.502;10.722;2023-11-21T10:01:28;38.83;;;19.83;;
14251;SDS011;7210;51.502;10.722;2023-11-21T10:03:57;35.43;;;19.70;;
14251;SDS011;7210;51.502;10.722;2023-11-21T10:06:24;35.10;;;18.40;;
14251;SDS011;7210;51.502;10.722;2023-11-21T10:08:53;36.17;;;19.10;;
14251;SDS011;7210;51.502;10.722;2023-11-21T10:11:22;36.63;;;19.37;;
14251;SDS011;7210;51.502;10.722;2023-11-21T10:13:52;33.13;;;18.93;;
14251;SDS011;7210;51.502;10.722;2023-11-21T10:16:20;38.33;;;19.27;;
14251;SDS011;7210;51.502;10.722;2023-11-21T10:18:51;38.00;;;19.67;;
14251;SDS011;7210;51.502;10.722;2023-11-21T10:21:20;34.00;;;19.17;;
14251;SDS011;7210;51.502;10.722;2023-11-21T10:23:48;34.83;;;19.03;;
14251;SDS011;7210;51.502;10.722;2023-11-21T10:26:19;34.60;;;19.23;;
14251;SDS011;7210;51.502;10.722;2023-11-21T10:28:55;30.20;;;19.03;;
14251;SDS011;7210;51.502;10.722;2023-11-21T10:31:23;36.83;;;19.97;;
14251;SDS011;7210;51.502;10.722;2023-11-21T10:33:50;35.73;;;20.40;;
14251;SDS011;7210;51.502;10.722;2023-11-21T10:36:29;37.37;;;19.70;;
14251;SDS011;7210;51.502;10.722;2023-11-21T10:38:58;41.37;;;20.53;;
14251;SDS011;7210;51.502;10.722;2023-11-21T10:41:26;37.13;;;19.53;;
14251;SDS011;7210;51.502;10.722;2023-11-21T10:43:58;34.27;;;18.40;;
14251;SDS011;7210;51.502;10.722;2023-11-21T10:46:25;31.33;;;18.17;;
14251;SDS011;7210;51.502;10.722;2023-11-21T10:48:55;33.27;;;18.93;;
14251;SDS011;7210;51.502;10.722;2023-11-21T10:51:22;37.77;;;20.37;;
14251;SDS011;7210;51.502;10.722;2023-11-21T10:53:52;32.67;;;18.77;;
14251;SDS011;7210;51.502;10.722;2023-11-21T10:56:19;36.67;;;19.43;;
14251;SDS011;7210;51.502;10.722;2023-11-21T10:58:49;29.57;;;18.00;;
14251;SDS011;7210;51.502;10.722;2023-11-21T11:01:17;19.67;;;12.23;;
14251;SDS011;7210;51.502;10.722;2023-11-21T11:03:46;17.63;;;10.07;;
14251;SDS011;7210;51.502;10.722;2023-11-21T11:06:14;3.80;;;2.57;;
14251;SDS011;7210;51.502;10.722;2023-11-21T11:08:42;4.70;;;2.63;;
14251;SDS011;7210;51.502;10.722;2023-11-21T11:11:12;2.17;;;1.70;;
14251;SDS011;7210;51.502;10.722;2023-11-21T11:13:43;1.33;;;1.10;;
14251;SDS011;7210;51.502;10.722;2023-11-21T11:16:12;1.50;;;1.40;;
14251;SDS011;7210;51.502;10.722;2023-11-21T11:18:42;1.40;;;1.00;;
14251;SDS011;7210;51.502;10.722;2023-11-21T11:21:14;1.57;;;1.47;;
14251;SDS011;7210;51.502;10.722;2023-11-21T11:24:02;2.50;;;1.90;;
14251;SDS011;7210;51.502;10.722;2023-11-21T11:26:45;4.87;;;4.57;;
14251;SDS011;7210;51.502;10.722;2023-11-21T11:29:18;2.67;;;2.47;;
14251;SDS011;7210;51.502;10.722;2023-11-21T11:32:00;2.10;;;2.00;;
14251;SDS011;7210;51.502;10.722;2023-11-21T11:34:36;2.10;;;2.00;;
14251;SDS011;7210;51.502;10.722;2023-11-21T11:37:11;2.13;;;1.73;;
14251;SDS011;7210;51.502;10.722;2023-11-21T11:39:40;3.57;;;2.33;;
14251;SDS011;7210;51.502;10.722;2023-11-21T11:42:11;2.50;;;2.30;;
14251;SDS011;7210;51.502;10.722;2023-11-21T11:44:52;1.50;;;1.40;;
14251;SDS011;7210;51.502;10.722;2023-11-21T11:47:21;1.47;;;1.37;;
14251;SDS011;7210;51.502;10.722;2023-11-21T11:50:05;1.73;;;1.60;;
14251;SDS011;7210;51.502;10.722;2023-11-21T11:52:39;2.57;;;1.70;;
14251;SDS011;7210;51.502;10.722;2023-11-21T11:55:08;1.60;;;1.50;;
14251;SDS011;7210;51.502;10.722;2023-11-21T11:57:38;1.53;;;1.43;;
14251;SDS011;7210;51.502;10.722;2023-11-21T12:00:09;1.80;;;1.70;;
14251;SDS011;7210;51.502;10.722;2023-11-21T12:02:41;2.03;;;1.80;;
14251;SDS011;7210;51.502;10.722;2023-11-21T12:05:10;2.40;;;2.20;;
14251;SDS011;7210;51.502;10.722;2023-11-21T12:07:47;2.43;;;2.20;;
14251;SDS011;7210;51.502;10.722;2023-11-21T12:10:16;3.03;;;2.53;;
14251;SDS011;7210;51.502;10.722;2023-11-21T12:12:46;2.80;;;2.60;;
14251;SDS011;7210;51.502;10.722;2023-11-21T12:15:14;3.37;;;3.00;;
14251;SDS011;7210;51.502;10.722;2023-11-21T12:17:42;3.30;;;3.00;;
14251;SDS011;7210;51.502;10.722;2023-11-21T12:20:10;3.27;;;2.97;;
14251;SDS011;7210;51.502;10.722;2023-11-21T12:22:42;3.50;;;3.20;;
14251;SDS011;7210;51.502;10.722;2023-11-21T12:25:13;3.97;;;3.67;;
14251;SDS011;7210;51.502;10.722;2023-11-21T12:27:42;4.23;;;3.83;;
14251;SDS011;7210;51.502;10.722;2023-11-21T12:30:18;4.80;;;4.30;;
14251;SDS011;7210;51.502;10.722;2023-11-21T12:32:47;5.43;;;4.67;;
14251;SDS011;7210;51.502;10.722;2023-11-21T12:35:16;13.33;;;11.70;;
14251;SDS011;7210;51.502;10.722;2023-11-21T12:37:45;8.73;;;7.83;;
14251;SDS011;7210;51.502;10.722;2023-11-21T12:40:13;9.83;;;6.17;;
14251;SDS011;7210;51.502;10.722;2023-11-21T12:42:43;5.87;;;5.37;;
14251;SDS011;7210;51.502;10.722;2023-11-21T12:45:19;6.07;;;5.47;;
14251;SDS011;7210;51.502;10.722;2023-11-21T12:47:48;6.13;;;5.53;;
14251;SDS011;7210;51.502;10.722;2023-11-21T12:50:18;6.57;;;5.97;;
14251;SDS011;7210;51.502;10.722;2023-11-21T12:52:48;8.10;;;6.93;;
14251;SDS011;7210;51.502;10.722;2023-11-21T12:55:17;8.40;;;7.43;;
14251;SDS011;7210;51.502;10.722;2023-11-21T12:57:47;8.43;;;7.63;;
14251;SDS011;7210;51.502;10.722;2023-11-21T13:00:17;8.37;;;7.57;;
14251;SDS011;7210;51.502;10.722;2023-11-21T13:02:56;10.97;;;9.53;;
14251;SDS011;7210;51.502;10.722;2023-11-21T13:05:24;27.53;;;22.93;;
14251;SDS011;7210;51.502;10.722;2023-11-21T13:07:56;12.87;;;11.57;;
14251;SDS011;7210;51.502;10.722;2023-11-21T13:10:25;11.20;;;10.00;;
14251;SDS011;7210;51.502;10.722;2023-11-21T13:12:56;8.53;;;7.27;;
14251;SDS011;7210;51.502;10.722;2023-11-21T13:15:26;9.63;;;8.63;;
14251;SDS011;7210;51.502;10.722;2023-11-21T13:17:56;12.43;;;11.13;;
14251;SDS011;7210;51.502;10.722;2023-11-21T13:20:23;10.77;;;9.67;;
14251;SDS011;7210;51.502;10.722;2023-11-21T13:22:51;10.07;;;9.07;;
14251;SDS011;7210;51.502;10.722;2023-11-21T13:25:22;8.40;;;7.60;;
14251;SDS011;7210;51.502;10.722;2023-11-21T13:27:52;7.97;;;7.17;;
14251;SDS011;7210;51.502;10.722;2023-11-21T13:30:19;7.60;;;6.80;;
14251;SDS011;7210;51.502;10.722;2023-11-21T13:32:52;8.77;;;7.87;;
14251;SDS011;7210;51.502;10.722;2023-11-21T13:35:22;9.47;;;8.37;;
14251;SDS011;7210;51.502;10.722;2023-11-21T13:37:56;9.53;;;6.83;;
14251;SDS011;7210;51.502;10.722;2023-11-21T13:40:25;7.03;;;6.33;;
14251;SDS011;7210;51.502;10.722;2023-11-21T13:42:53;6.70;;;6.10;;
14251;SDS011;7210;51.502;10.722;2023-11-21T13:45:21;6.00;;;5.40;;
14251;SDS011;7210;51.502;10.722;2023-11-21T13:47:49;7.57;;;5.00;;
14251;SDS011;7210;51.502;10.722;2023-11-21T13:50:25;6.53;;;5.93;;
14251;SDS011;7210;51.502;10.722;2023-11-21T13:52:58;6.30;;;5.70;;
14251;SDS011;7210;51.502;10.722;2023-11-21T13:55:34;6.50;;;5.80;;
14251;SDS011;7210;51.502;10.722;2023-11-21T13:58:02;8.63;;;5.53;;
14251;SDS011;7210;51.502;10.722;2023-11-21T14:00:46;7.40;;;6.70;;
14251;SDS011;7210;51.502;10.722;2023-11-21T14:03:21;17.87;;;15.50;;
14251;SDS011;7210;51.502;10.722;2023-11-21T14:05:59;10.17;;;8.87;;
14251;SDS011;7210;51.502;10.722;2023-11-21T14:08:34;12.10;;;10.87;;
14251;SDS011;7210;51.502;10.722;2023-11-21T14:11:01;12.03;;;10.80;;
14251;SDS011;7210;51.502;10.722;2023-11-21T14:13:31;12.43;;;11.23;;
14251;SDS011;7210;51.502;10.722;2023-11-21T14:15:59;10.70;;;9.43;;
14251;SDS011;7210;51.502;10.722;2023-11-21T14:18:28;7.90;;;6.30;;
14251;SDS011;7210;51.502;10.722;2023-11-21T14:21:00;7.13;;;6.43;;
14251;SDS011;7210;51.502;10.722;2023-11-21T14:23:28;7.23;;;6.53;;
14251;SDS011;7210;51.502;10.722;2023-11-21T14:25:55;6.73;;;6.13;;
14251;SDS011;7210;51.502;10.722;2023-11-21T14:28:23;6.70;;;6.00;;
14251;SDS011;7210;51.502;10.722;2023-11-21T14:30:50;6.93;;;6.20;;
14251;SDS011;7210;51.502;10.722;2023-11-21T14:33:17;7.27;;;6.50;;
14251;SDS011;7210;51.502;10.722;2023-11-21T14:35:44;7.47;;;6.60;;
14251;SDS011;7210;51.502;10.722;2023-11-21T14:38:13;7.47;;;6.77;;
14251;SDS011;7210;51.502;10.722;2023-11-21T14:40:41;6.53;;;5.93;;
14251;SDS011;7210;51.502;10.722;2023-11-21T14:43:08;7.60;;;6.87;;
14251;SDS011;7210;51.502;10.722;2023-11-21T14:45:35;9.10;;;7.70;;
14251;SDS011;7210;51.502;10.722;2023-11-21T14:48:02;7.83;;;6.77;;
14251;SDS011;7210;51.502;10.722;2023-11-21T14:50:33;9.13;;;7.40;;
14251;SDS011;7210;51.502;10.722;2023-11-21T14:53:10;9.57;;;8.50;;
14251;SDS011;7210;51.502;10.722;2023-11-21T14:55:39;11.63;;;8.77;;
14251;SDS011;7210;51.502;10.722;2023-11-21T14:58:22;9.70;;;7.70;;
14251;SDS011;7210;51.502;10.722;2023-11-21T15:00:53;8.27;;;7.43;;
14251;SDS011;7210;51.502;10.722;2023-11-21T15:03:28;8.67;;;7.77;;